Scroll down
FLIGHT INFORMATION
Northwest Airlines

NWA161

At Arrival Gate

EHAM
 KMSP
DATE: 2019-09-03
GATE: E18
GATE DEPARTURE: 07:58
TAKEOFF: 08:10
DATE: 2019-09-03
GATE:  -
LANDING: 16:41
GATE ARRIVAL: 16:49
FLIGHT DATA
Crew: 
Speed: 
525 kts
Altitude: 
36,037 ft
Stage Length: 
3,609.6 nm
Block Time: 
8.9 hrs
Flight Time: 
8.5 hrs
Fuel Used: 
199,734 lb
Cleared Route: EHAM EH029 EH009 EH028 BERGI LEGBA ODASI LONAM NATEB AGPED OTBUN IPSAD HAVEN TLA GOW ERAKA 6020N 6130N 6140N 6050N URTAK MCKEE 9H YAN DLH HHOGS MILAC BAINY LUCCY SAUGR GEP PRRPL MAUER JJENI KMSP
TRACK DATA
50,000 ft 1,000 kts
AIRCRAFT INFO AND CUMULATIVE STATS
Aircraft Type: 
B744
Registration: 
SELCAL: 
EGKP
MSN/LN: 
23720 / 708
Operator: 
Total Flights: 
4
Total Block Time: 
25.3 hrs
Total Flight Time: 
24.2 hrs
Total Fuel Time: 
424,711 lb
DATALINK LOG | Newest first | Current as of: 2021-01-20 22:29:02
LABEL SEQUENCE CONTENT Dn/Up
QD504216:49 52.9▼ Dn
QC425716:41▼ Dn
2U5757KMSP 031553Z 31020G31KT 10SM FEW018 FEW120 FEW200 23/12 A2977 RMK AO2 PK WND 33031/1547 SLP077 T02330122▲ Up
2S5756KMSP▼ Dn
QB115608:10▼ Dn
QA582507:58 252.7▼ Dn
A35214CLEARED TO KMSP VIA BERG3V BERGI UM90 LEGBA UM90 ODASI UM90 LONAM N610 NATEB Y96 TLA L602 GOW ERAKA NATA URTAK MCKEE 9H YAN DLH HHOGS BAINY3. SQUAWK 4776.▲ Up
B35121EHAM KMSP NWA161 N662US S ▼ Dn
2U2437EHAM 030655Z 26011KT 9999 FEW023 BKN040 17/12 Q1021 NOSIG▲ Up
2S2325EHAM▼ Dn
A72235NOTAM WIE UFN CONF ACARS IN TIMES VIA WEB INTERFACE BEFORE SETTING INS TO OFF. ACARS LOG SHOWS QD MSG AND INFO TAB STATUS AS -AT ARR GATE-.▲ Up
Q02235[LINK ACK]▲ Up
Q02244[LINK TEST]▼ Dn


AIRCRAFT HISTORY
FLIGHT DATE FLIGHT NO. ORIGIN DESTINATION CLEARED ROUTE BLOCK TIME FLIGHT TIME FUEL USED PILOT
2020-06-07NWA607KSEA PHNL KSEA DODVE WUREL ATOME BREMM HAROB HQM SEDAR FOZZI HEKAB HELOP HALLI AUNTI APACK TOADS SOPIW MAGGI BAMBO GRITL CKH OOKAH RW08L5.4 hrs5.3 hrs2,221 lbRandall Smith
2020-01-28NWA128KMSP KSEA KMSP ZOGAP PAGOZ SMERF DIK HILGR GTF MLP GEG TEMPL WITRO ODAHL GLASR JAKSN WOODI HETHR KENMO RW16L2.9 hrs2.8 hrs52,311 lbRandall Smith
2019-09-03NWA161EHAM KMSP EHAM EH029 EH009 EH028 BERGI LEGBA ODASI LONAM NATEB AGPED OTBUN IPSAD HAVEN TLA GOW ERAKA 6020N 6130N 6140N 6050N URTAK MCKEE 9H YAN DLH HHOGS MILAC BAINY LUCCY SAUGR GEP PRRPL MAUER JJENI KMSP8.9 hrs8.5 hrs199,734 lbKyle Rodgers
2019-08-25NWA74KATL EHAM KATL LIDAS ERWIN PLMMR TENSE NWANT SPA NYBLK MASHI KIDDO OMENS BEARI PXT GARED CLASY RIDGY CANNY PALMM ENO BESSI EDJER DAVYS BRAND RBV LLUND BAYYS PUT TOPPS ALLRY 5150N 5340N 5430N 5520N RESNO NETKI NIBOG REMSI BELOX TENSO DESIG ELNOD MAMUL EDUXO LAMIX ROGAG AMVEL DOLAS ENITO DIBAL BUKUT LAMSO ETPOS SUGOL EHAM7.9 hrs7.6 hrs170,446 lbKyle Rodgers